Time;durP1;ratioP1;P1;durP2;ratioP2;P2;SDS_P1;SDS_P2;PMS_P1;PMS_P2;Temp;Humidity;BMP_temperature;BMP_pressure;BME280_temperature;BME280_humidity;BME280_pressure;Samples;Min_cycle;Max_cycle;Signal;HPM_P1;HPM_P2
2022/09/15 00:00:48;;;;;;;4.23;2.20;;;;;;;23.21;53.12;98649.72;6246522;22;20195;-87
2022/09/15 00:03:17;;;;;;;3.50;2.10;;;;;;;23.10;53.81;98650.09;6247058;22;20530;-87
2022/09/15 00:05:44;;;;;;;3.83;2.07;;;;;;;23.03;53.82;98648.28;6246483;22;20157;-87
2022/09/15 00:08:12;;;;;;;8.13;3.47;;;;;;;23.06;53.89;98650.63;6245141;23;20212;-87
2022/09/15 00:10:49;;;;;;;3.27;2.17;;;;;;;22.98;54.03;98645.28;6246552;22;20152;-88
2022/09/15 00:13:19;;;;;;;3.37;2.00;;;;;;;22.90;54.41;98646.16;6247055;22;20220;-88
2022/09/15 00:15:48;;;;;;;4.13;2.50;;;;;;;22.92;54.26;98640.63;6246346;23;20167;-88
2022/09/15 00:18:14;;;;;;;4.23;2.13;;;;;;;22.95;54.69;98634.94;6244319;23;20165;-88
2022/09/15 00:20:43;;;;;;;4.23;2.03;;;;;;;23.06;53.98;98643.41;6244799;22;20617;-88
2022/09/15 00:23:12;;;;;;;4.20;2.50;;;;;;;23.13;53.68;98648.91;6243128;23;20160;-87
2022/09/15 00:25:48;;;;;;;3.93;2.23;;;;;;;23.10;53.86;98644.75;6239748;23;20226;-88
2022/09/15 00:28:15;;;;;;;4.70;2.23;;;;;;;23.12;53.78;98647.22;6243958;22;20149;-87
2022/09/15 00:30:46;;;;;;;3.90;2.20;;;;;;;23.10;53.58;98644.75;6244329;22;20146;-88
2022/09/15 00:33:13;;;;;;;4.93;2.33;;;;;;;22.93;53.82;98648.44;6242828;23;20148;-88
2022/09/15 00:35:43;;;;;;;3.93;2.03;;;;;;;22.81;54.76;98654.31;6245130;23;20163;-88
2022/09/15 00:38:11;;;;;;;3.67;2.27;;;;;;;22.89;54.30;98662.31;6246316;22;20145;-87
2022/09/15 00:40:50;;;;;;;3.47;2.17;;;;;;;22.83;53.89;98663.84;6246219;22;20176;-88
2022/09/15 00:43:18;;;;;;;3.23;2.07;;;;;;;22.78;54.26;98657.31;6246027;22;20133;-87
2022/09/15 00:45:46;;;;;;;4.57;2.47;;;;;;;22.83;53.59;98665.66;6245029;23;20188;-87
2022/09/15 00:48:18;;;;;;;4.93;2.80;;;;;;;22.77;53.88;98669.03;6246251;22;20145;-87
2022/09/15 00:50:48;;;;;;;7.53;2.00;;;;;;;22.77;53.98;98669.03;6246406;22;20129;-87
2022/09/15 00:53:15;;;;;;;3.80;2.27;;;;;;;22.69;54.19;98661.88;6245123;23;20190;-87
2022/09/15 00:55:47;;;;;;;6.00;2.57;;;;;;;22.63;54.47;98668.72;6243430;23;20153;-88
2022/09/15 00:58:25;;;;;;;2.93;1.80;;;;;;;22.55;54.72;98668.69;6246436;22;20202;-87
2022/09/15 01:00:57;;;;;;;2.47;1.70;;;;;;;22.55;54.37;98668.69;6244311;23;20173;-88
2022/09/15 01:03:30;;;;;;;3.57;2.20;;;;;;;22.53;54.76;98668.03;6245420;22;20156;-88
2022/09/15 01:06:03;;;;;;;3.77;2.40;;;;;;;22.47;54.86;98665.16;6246591;22;20141;-88
2022/09/15 01:08:36;;;;;;;3.33;1.87;;;;;;;22.36;55.12;98666.34;6246598;22;20601;-88
2022/09/15 01:11:20;;;;;;;;;;;;;;;;;;;;;
2022/09/15 01:14:01;;;;;;;3.33;1.90;;;;;;;22.25;55.54;98653.31;6247177;23;20628;-88
2022/09/15 01:17:09;;;;;;;;;;;;;;;;;;;;;
2022/09/15 01:20:04;;;;;;;5.30;2.33;;;;;;;22.09;55.43;98637.25;6245658;23;20577;-88
2022/09/15 01:22:32;;;;;;;3.17;1.90;;;;;;;21.96;56.18;98640.41;6246457;22;20133;-88
2022/09/15 01:25:38;;;;;;;2.93;1.77;;;;;;;22.00;55.79;98641.78;6246442;22;20167;-88
2022/09/15 01:28:16;;;;;;;3.03;1.87;;;;;;;21.99;55.58;98633.91;6245230;23;20180;-88
2022/09/15 01:30:50;;;;;;;2.83;1.73;;;;;;;22.03;55.34;98632.59;6246222;23;20175;-88
2022/09/15 01:33:33;;;;;;;2.73;1.70;;;;;;;22.17;54.45;98623.94;6247058;22;20133;-88
2022/09/15 01:36:05;;;;;;;4.70;2.20;;;;;;;22.15;54.13;98633.94;6246706;22;20129;-88
2022/09/15 01:38:52;;;;;;;3.80;2.00;;;;;;;22.06;53.95;98642.13;6245342;23;20153;-88
2022/09/15 01:41:28;;;;;;;5.13;1.90;;;;;;;22.04;53.92;98634.25;6245396;23;20153;-88
2022/09/15 01:44:23;;;;;;;2.40;1.50;;;;;;;22.08;53.47;98630.28;6246974;22;20458;-88
2022/09/15 01:46:56;;;;;;;3.47;1.67;;;;;;;22.03;53.40;98627.28;6228263;23;20246;-88
2022/09/15 01:49:29;;;;;;;3.57;2.00;;;;;;;21.99;53.76;98628.59;6244999;23;20542;-88
2022/09/15 01:51:57;;;;;;;3.40;2.10;;;;;;;22.05;53.34;98627.94;6244969;23;20160;-88
2022/09/15 01:54:43;;;;;;;3.20;1.67;;;;;;;22.11;53.43;98635.28;6247139;22;20630;-88
2022/09/15 01:57:21;;;;;;;;;;;;;;;;;;;;;
2022/09/15 02:00:04;;;;;;;3.07;1.80;;;;;;;22.10;52.73;98636.28;6247041;23;20644;-88
2022/09/15 02:02:39;;;;;;;3.50;1.90;;;;;;;22.11;52.74;98639.78;6246827;22;20144;-89
2022/09/15 02:05:15;;;;;;;2.93;1.47;;;;;;;22.09;52.42;98642.59;6244889;23;20206;-88
2022/09/15 02:07:56;;;;;;;2.93;1.33;;;;;;;21.99;52.45;98641.94;6244733;23;20203;-88
2022/09/15 02:11:06;;;;;;;3.57;1.73;;;;;;;21.97;52.76;98647.44;6246361;22;20163;-88
2022/09/15 02:13:44;;;;;;;3.10;1.87;;;;;;;21.87;53.07;98632.56;6240452;23;20164;-88
2022/09/15 02:16:28;;;;;;;3.10;1.90;;;;;;;21.82;53.54;98651.72;6245785;23;20155;-88
2022/09/15 02:19:55;;;;;;;2.87;1.70;;;;;;;21.81;53.63;98650.03;6246121;22;20133;-88
2022/09/15 02:22:26;;;;;;;2.77;1.50;;;;;;;21.88;53.12;98647.59;6245372;22;20149;-88
2022/09/15 02:25:17;;;;;;;3.33;1.90;;;;;;;21.83;53.17;98655.19;6246238;22;20161;-88
2022/09/15 02:27:48;;;;;;;3.23;1.63;;;;;;;21.70;53.92;98655.66;6245839;22;20137;-87
2022/09/15 02:30:18;;;;;;;8.73;2.10;;;;;;;21.62;54.20;98644.97;6246152;22;20157;-88
2022/09/15 02:32:54;;;;;;;4.13;2.13;;;;;;;21.64;54.21;98645.66;6246142;22;20218;-88
2022/09/15 02:35:22;;;;;;;3.83;1.80;;;;;;;21.66;54.66;98640.16;6244518;23;20572;-87
2022/09/15 02:37:53;;;;;;;4.10;2.20;;;;;;;21.59;54.72;98639.16;6246120;22;20149;-88
2022/09/15 02:40:44;;;;;;;;;;;;;;;;;;;;;
2022/09/15 02:43:22;;;;;;;3.87;2.00;;;;;;;21.43;54.93;98632.75;6245109;23;20212;-89
2022/09/15 02:45:53;;;;;;;4.07;2.00;;;;;;;21.38;55.06;98643.06;6245139;22;20141;-89
2022/09/15 02:48:24;;;;;;;3.67;1.70;;;;;;;21.32;55.47;98627.72;6245716;22;20134;-88
2022/09/15 02:50:58;;;;;;;2.97;1.33;;;;;;;21.27;55.20;98632.69;6245546;22;20129;-88
2022/09/15 02:53:28;;;;;;;4.50;1.70;;;;;;;21.37;55.15;98625.41;6244162;23;20171;-88
2022/09/15 02:56:26;;;;;;;;;;;;;;;;;;;;;
2022/09/15 02:59:25;;;;;;;3.60;1.97;;;;;;;21.30;54.99;98634.22;6245300;23;20479;-88
2022/09/15 03:02:45;;;;;;;;;;;;;;;;;;;;;
2022/09/15 03:05:28;;;;;;;3.10;2.10;;;;;;;21.20;55.32;98644.97;6236694;23;20156;-88
2022/09/15 03:08:19;;;;;;;2.07;1.23;;;;;;;21.24;54.94;98656.16;6245406;22;20188;-88
2022/09/15 03:11:19;;;;;;;;;;;;;;;;;;;;;
2022/09/15 03:14:34;;;;;;;;;;;;;;;;;;;;;
2022/09/15 03:20:27;;;;;;;;;;;;;;;;;;;;;
2022/09/15 03:23:13;;;;;;;1.97;1.20;;;;;;;21.14;54.43;98666.09;6247167;23;20271;-88
2022/09/15 03:25:55;;;;;;;2.50;1.47;;;;;;;21.11;54.59;98664.59;6245729;23;20531;-88
2022/09/15 03:28:25;;;;;;;3.60;1.73;;;;;;;21.11;54.57;98661.94;6246062;23;20280;-88
2022/09/15 03:31:02;;;;;;;2.80;1.43;;;;;;;21.15;54.11;98673.94;6247752;22;20172;-88
2022/09/15 03:33:33;;;;;;;3.17;1.70;;;;;;;21.09;54.33;98679.06;6246440;23;20480;-88
2022/09/15 03:36:07;;;;;;;2.63;1.53;;;;;;;21.15;53.81;98678.41;6245822;23;20549;-88
2022/09/15 03:38:35;;;;;;;2.37;1.40;;;;;;;21.14;53.62;98672.28;6245647;23;20238;-88
2022/09/15 03:41:07;;;;;;;3.27;1.30;;;;;;;21.07;53.64;98676.56;6247186;22;20223;-88
2022/09/15 03:43:47;;;;;;;3.27;1.50;;;;;;;21.03;53.84;98667.19;6246792;22;20149;-88
2022/09/15 03:46:30;;;;;;;;;;;;;;;;;;;;;
2022/09/15 03:49:12;;;;;;;;;;;;;;;;;;;;;
2022/09/15 03:51:43;;;;;;;2.40;1.60;;;;;;;20.84;54.91;98675.38;6244982;23;20669;-88
2022/09/15 03:54:14;;;;;;;2.57;1.60;;;;;;;20.84;55.05;98681.53;6246819;22;20159;-88
2022/09/15 03:56:52;;;;;;;;;;;;;;;;;;;;;
2022/09/15 03:59:55;;;;;;;4.67;1.50;;;;;;;20.78;55.21;98670.66;6246811;23;20255;-88
2022/09/15 04:02:33;;;;;;;2.53;1.30;;;;;;;20.77;55.45;98674.34;6246829;22;20247;-88
2022/09/15 04:05:40;;;;;;;3.97;1.80;;;;;;;20.69;56.10;98666.28;6248207;22;20129;-88
2022/09/15 04:08:17;;;;;;;2.37;1.50;;;;;;;20.65;56.35;98680.91;6246339;22;20168;-88
2022/09/15 04:10:59;;;;;;;;;;;;;;;;;;;;;
2022/09/15 04:13:32;;;;;;;6.40;2.10;;;;;;;20.79;55.81;98677.69;6248081;23;20516;-88
2022/09/15 04:16:11;;;;;;;3.57;1.60;;;;;;;20.75;55.48;98671.81;6247506;22;20144;-88
2022/09/15 04:18:40;;;;;;;3.53;1.80;;;;;;;20.72;55.64;98672.16;6247812;22;20139;-88
2022/09/15 04:21:13;;;;;;;4.43;2.17;;;;;;;20.75;55.85;98676.34;6245611;23;20246;-88
2022/09/15 04:23:40;;;;;;;2.80;1.60;;;;;;;20.83;55.62;98673.72;6246872;22;20137;-88
2022/09/15 04:26:15;;;;;;;2.67;1.50;;;;;;;20.83;55.69;98679.88;6245188;22;20144;-88
2022/09/15 04:28:40;;;;;;;5.33;2.10;;;;;;;20.82;55.90;98667.56;6246457;22;20518;-88
2022/09/15 04:31:11;;;;;;;2.90;1.60;;;;;;;20.87;54.78;98664.41;6246051;23;20187;-88
2022/09/15 04:33:38;;;;;;;7.03;1.53;;;;;;;20.91;54.32;98660.44;6246939;22;20134;-88
2022/09/15 04:36:15;;;;;;;2.63;1.37;;;;;;;20.93;54.58;98661.13;6246985;22;20596;-88
2022/09/15 04:38:44;;;;;;;3.40;1.30;;;;;;;20.99;54.23;98663.16;6245329;23;20213;-88
2022/09/15 04:41:11;;;;;;;2.70;1.47;;;;;;;21.07;54.42;98655.22;6246750;22;20205;-88
2022/09/15 04:43:37;;;;;;;4.27;1.90;;;;;;;21.08;54.41;98658.75;6247103;22;20228;-88
2022/09/15 04:46:02;;;;;;;3.53;1.70;;;;;;;21.10;54.34;98657.59;6245004;23;20157;-88
2022/09/15 04:49:08;;;;;;;;;;;;;;;;;;;;;
2022/09/15 04:51:57;;;;;;;;;;;;;;;;;;;;;
2022/09/15 04:54:35;;;;;;;8.23;2.07;;;;;;;21.35;53.95;98666.56;6247334;23;20224;-88
2022/09/15 04:57:16;;;;;;;;;;;;;;;;;;;;;
2022/09/15 04:59:45;;;;;;;3.20;1.60;;;;;;;21.41;52.92;98664.06;6247132;23;20248;-88
2022/09/15 05:02:18;;;;;;;6.80;1.83;;;;;;;21.40;52.63;98657.09;6245750;23;20167;-88
2022/09/15 05:04:51;;;;;;;5.27;2.27;;;;;;;21.39;52.62;98666.06;6245320;23;20181;-88
2022/09/15 05:07:30;;;;;;;8.33;2.20;;;;;;;21.52;52.59;98670.09;6246504;23;20141;-88
2022/09/15 05:10:01;;;;;;;3.40;2.03;;;;;;;21.56;52.61;98668.81;6247194;22;20129;-88
2022/09/15 05:12:26;;;;;;;3.40;1.83;;;;;;;21.65;52.85;98670.47;6246923;22;20129;-89
2022/09/15 05:15:05;;;;;;;;;;;;;;;;;;;;;
2022/09/15 05:18:01;;;;;;;;;;;;;;;;;;;;;
2022/09/15 05:20:29;;;;;;;3.73;1.70;;;;;;;21.83;52.69;98671.22;6247270;23;20248;-88
2022/09/15 05:22:57;;;;;;;3.80;1.67;;;;;;;21.86;52.82;98668.25;6245147;23;20217;-88
2022/09/15 05:25:27;;;;;;;3.37;1.73;;;;;;;21.93;52.84;98671.97;6246796;22;20145;-88
2022/09/15 05:27:58;;;;;;;3.17;1.90;;;;;;;21.97;52.51;98671.47;6246700;22;20153;-88
2022/09/15 05:30:26;;;;;;;3.80;1.70;;;;;;;21.98;53.20;98664.28;6245111;23;20138;-88
2022/09/15 05:32:55;;;;;;;7.53;2.30;;;;;;;22.13;52.85;98670.66;6246323;22;20557;-88
2022/09/15 05:35:23;;;;;;;3.03;1.87;;;;;;;22.25;52.86;98663.97;6246554;22;20502;-88
2022/09/15 05:37:50;;;;;;;2.47;1.67;;;;;;;22.50;52.25;98672.84;6246664;22;20149;-88
2022/09/15 05:40:16;;;;;;;2.00;1.23;;;;;;;22.64;51.66;98662.34;6246608;22;20252;-88
2022/09/15 05:42:46;;;;;;;6.23;1.50;;;;;;;22.77;51.09;98666.38;6246189;22;20183;-88
2022/09/15 05:45:22;;;;;;;3.87;1.60;;;;;;;22.84;50.62;98660.16;6246553;22;20149;-88
2022/09/15 05:47:47;;;;;;;2.50;1.23;;;;;;;22.88;49.99;98660.66;6244920;23;20553;-88
2022/09/15 05:50:18;;;;;;;3.40;1.17;;;;;;;22.96;49.97;98656.13;6244908;23;20149;-88
2022/09/15 05:52:49;;;;;;;2.23;1.10;;;;;;;23.19;49.36;98664.28;6246824;22;20140;-88
2022/09/15 05:55:27;;;;;;;4.50;1.63;;;;;;;23.43;49.62;98661.53;6247135;22;20223;-88
2022/09/15 05:57:57;;;;;;;5.57;1.30;;;;;;;23.56;48.64;98661.81;6246803;22;20153;-88
2022/09/15 06:00:27;;;;;;;1.90;0.87;;;;;;;23.63;47.98;98657.47;6245715;23;20189;-88
2022/09/15 06:02:55;;;;;;;2.33;1.00;;;;;;;23.87;47.82;98667.19;6245538;23;20199;-88
2022/09/15 06:05:37;;;;;;;7.57;1.20;;;;;;;24.00;47.55;98664.78;6244810;23;20149;-88
2022/09/15 06:09:22;;;;;;;1.97;1.10;;;;;;;24.23;47.56;98659.47;6245034;23;20172;-89
2022/09/15 06:11:45;;;;;;;9.00;1.33;;;;;;;24.51;46.68;98659.72;6225469;22;20625;-89
2022/09/15 06:14:12;;;;;;;2.40;1.27;;;;;;;24.71;44.66;98655.56;6245083;23;20167;-88
2022/09/15 06:16:40;;;;;;;2.47;0.90;;;;;;;24.88;44.34;98652.56;6244679;23;20153;-88
2022/09/15 06:19:10;;;;;;;2.43;1.07;;;;;;;25.09;44.30;98662.56;6245759;22;20152;-88
2022/09/15 06:21:36;;;;;;;3.53;1.10;;;;;;;25.31;44.02;98656.31;6244727;23;20593;-88
2022/09/15 06:24:05;;;;;;;3.37;1.10;;;;;;;25.63;43.34;98655.06;6245893;22;20145;-88
2022/09/15 06:26:32;;;;;;;2.13;1.20;;;;;;;25.94;43.08;98660.22;6246210;22;20149;-88
2022/09/15 06:29:05;;;;;;;1.97;1.00;;;;;;;26.22;42.35;98653.09;6246194;22;20149;-88
2022/09/15 06:32:04;;;;;;;;;;;;;;;;;;;;;
2022/09/15 06:35:06;;;;;;;6.33;0.97;;;;;;;27.12;40.44;98643.31;6246594;23;20222;-89
2022/09/15 06:38:09;;;;;;;2.13;0.97;;;;;;;27.50;40.32;98633.00;6246205;22;20129;-89
2022/09/15 06:44:33;;;;;;;;;;;;;;;;;;;;;
2022/09/15 06:47:32;;;;;;;;;;;;;;;;;;;;;
2022/09/15 06:54:21;;;;;;;;;;;;;;;;;;;;;
2022/09/15 06:57:35;;;;;;;;;;;;;;;;;;;;;
2022/09/15 07:00:26;;;;;;;3.47;1.33;;;;;;;31.57;32.94;98621.72;6245728;23;20563;-89
2022/09/15 07:03:13;;;;;;;2.05;1.00;;;;;;;32.14;31.59;98621.16;6246527;22;20133;-88
2022/09/15 07:05:53;;;;;;;3.95;1.10;;;;;;;32.58;30.70;98624.47;6246482;23;20148;-89
2022/09/15 07:08:45;;;;;;;2.25;1.08;;;;;;;32.86;31.03;98627.34;6244765;23;20172;-89
2022/09/15 07:11:31;;;;;;;;;;;;;;;;;;;;;
2022/09/15 07:14:50;;;;;;;;;;;;;;;;;;;;;
2022/09/15 07:17:28;;;;;;;2.42;1.10;;;;;;;33.46;28.95;98618.94;6246681;23;20232;-89
2022/09/15 07:21:01;;;;;;;;;;;;;;;;;;;;;
2022/09/15 07:23:50;;;;;;;;;;;;;;;;;;;;;
2022/09/15 07:27:12;;;;;;;;;;;;;;;;;;;;;
2022/09/15 07:30:38;;;;;;;;;;;;;;;;;;;;;
2022/09/15 07:34:06;;;;;;;;;;;;;;;;;;;;;
2022/09/15 07:41:00;;;;;;;;;;;;;;;;;;;;;
2022/09/15 07:55:03;;;;;;;1.27;0.68;;;;;;;33.68;27.21;98634.38;6036214;23;20169;-89
2022/09/15 08:09:17;;;;;;;;;;;;;;;;;;;;;
2022/09/15 08:11:58;;;;;;;2.83;1.10;;;;;;;33.99;27.24;98614.88;5949866;24;20247;-90
2022/09/15 08:15:43;;;;;;;;;;;;;;;;;;;;;
2022/09/15 08:49:24;;;;;;;;;;;;;;;;;;;;;
2022/09/15 08:59:19;;;;;;;10.88;0.80;;;;;;;36.61;23.50;98590.50;5823787;24;20559;-90
2022/09/15 09:13:23;;;;;;;2.35;0.60;;;;;;;36.88;23.57;98577.59;5897998;24;20180;-89
2022/09/15 09:20:06;;;;;;;;;;;;;;;;;;;;;
2022/09/15 09:26:29;;;;;;;;;;;;;;;;;;;;;
2022/09/15 09:33:02;;;;;;;0.98;0.40;;;;;;;37.84;21.84;98547.97;5795752;24;20163;-89
2022/09/15 09:38:39;;;;;;;0.65;0.25;;;;;;;37.94;21.78;98536.28;5980299;24;20162;-90
2022/09/15 09:42:07;;;;;;;;;;;;;;;;;;;;;
2022/09/15 09:48:29;;;;;;;;;;;;;;;;;;;;;
2022/09/15 09:51:51;;;;;;;;;;;;;;;;;;;;;
2022/09/15 09:57:55;;;;;;;0.93;0.40;;;;;;;39.32;20.51;98517.50;6001967;23;20169;-90
2022/09/15 10:00:46;;;;;;;;;;;;;;;;;;;;;
2022/09/15 10:03:23;;;;;;;0.38;0.30;;;;;;;39.44;19.71;98500.72;6179714;23;20618;-90
2022/09/15 10:06:21;;;;;;;1.58;0.38;;;;;;;39.60;19.56;98502.28;6203666;23;20474;-89
2022/09/15 10:09:36;;;;;;;1.40;0.35;;;;;;;39.81;19.21;98503.81;6223013;23;20176;-89
2022/09/15 10:12:17;;;;;;;1.15;0.40;;;;;;;40.07;19.37;98505.28;6232214;23;20164;-89
2022/09/15 10:14:50;;;;;;;1.13;0.50;;;;;;;40.10;19.11;98506.66;6219225;23;20222;-88
2022/09/15 10:17:22;;;;;;;3.08;0.75;;;;;;;40.00;18.84;98496.53;6246569;23;20137;-88
2022/09/15 10:20:05;;;;;;;1.67;0.47;;;;;;;40.20;18.90;98490.91;6220441;23;20173;-89
2022/09/15 10:22:38;;;;;;;0.80;0.35;;;;;;;40.10;19.17;98491.00;6219392;23;20216;-89
2022/09/15 10:25:25;;;;;;;2.03;0.52;;;;;;;40.32;19.06;98488.63;6246539;23;20212;-90
2022/09/15 10:28:36;;;;;;;1.08;0.30;;;;;;;40.32;19.20;98480.38;6220152;23;20220;-90
2022/09/15 10:31:06;;;;;;;1.85;0.40;;;;;;;40.34;18.81;98486.41;6207529;23;20210;-90
2022/09/15 10:33:33;;;;;;;0.90;0.40;;;;;;;40.46;18.45;98484.06;6219368;23;20595;-89
2022/09/15 10:36:06;;;;;;;1.88;0.50;;;;;;;40.40;18.92;98476.19;6245018;23;20202;-89
2022/09/15 10:38:42;;;;;;;1.15;0.45;;;;;;;40.38;19.17;98479.22;6243822;23;20156;-88
2022/09/15 10:41:17;;;;;;;3.88;0.40;;;;;;;40.49;19.59;98477.19;6217283;23;20189;-89
2022/09/15 10:44:20;;;;;;;0.98;0.45;;;;;;;40.76;18.92;98479.41;6243892;23;20133;-90
2022/09/15 10:46:51;;;;;;;2.83;0.50;;;;;;;40.82;18.43;98473.56;6243445;23;20149;-89
2022/09/15 10:50:21;;;;;;;;;;;;;;;;;;;;;
2022/09/15 10:53:08;;;;;;;0.98;0.40;;;;;;;41.09;18.62;98471.03;6092660;23;20239;-88
2022/09/15 10:55:48;;;;;;;1.83;0.73;;;;;;;41.28;17.78;98468.31;6219245;23;20145;-91
2022/09/15 10:58:23;;;;;;;4.38;1.65;;;;;;;41.17;18.32;98466.03;6219592;23;20474;-90
2022/09/15 11:01:19;;;;;;;1.48;0.52;;;;;;;40.84;17.92;98467.75;6245752;23;20165;-89
2022/09/15 11:04:22;;;;;;;3.75;0.50;;;;;;;41.00;18.06;98450.84;6219739;23;20153;-89
2022/09/15 11:07:00;;;;;;;1.95;0.55;;;;;;;41.11;17.66;98457.03;6245956;23;20175;-89
2022/09/15 11:09:37;;;;;;;2.00;0.40;;;;;;;41.37;18.01;98455.59;6245143;23;20163;-89
2022/09/15 11:12:22;;;;;;;2.58;0.50;;;;;;;41.28;18.43;98451.81;6242215;23;20477;-89
2022/09/15 11:15:27;;;;;;;2.28;0.55;;;;;;;41.16;17.92;98443.19;6244462;23;20542;-89
2022/09/15 11:18:07;;;;;;;6.18;0.90;;;;;;;41.45;17.93;98440.34;6245284;23;20223;-89
2022/09/15 11:21:09;;;;;;;0.55;0.40;;;;;;;41.57;18.17;98438.78;6244354;23;20314;-90
2022/09/15 11:23:47;;;;;;;3.90;0.80;;;;;;;41.71;17.55;98432.50;6218330;23;20160;-90
2022/09/15 11:26:29;;;;;;;1.27;0.57;;;;;;;41.76;17.29;98437.97;6215496;23;20222;-87
2022/09/15 11:29:06;;;;;;;4.30;0.93;;;;;;;41.35;17.32;98435.81;6218847;23;20152;-89
2022/09/15 11:31:42;;;;;;;2.85;0.52;;;;;;;41.22;18.03;98433.78;6244297;23;20133;-90
2022/09/15 11:34:22;;;;;;;3.13;1.05;;;;;;;41.36;17.75;98431.13;6243589;23;20145;-90
2022/09/15 11:37:15;;;;;;;4.30;0.50;;;;;;;41.60;18.05;98415.34;6218268;23;20148;-90
2022/09/15 11:39:48;;;;;;;2.70;1.23;;;;;;;41.64;18.07;98408.16;6246178;23;20206;-89
2022/09/15 11:42:33;;;;;;;2.17;0.50;;;;;;;41.69;18.54;98408.84;6221503;23;20176;-89
2022/09/15 11:45:00;;;;;;;2.55;0.70;;;;;;;41.87;17.65;98398.16;6247509;23;20211;-89
2022/09/15 11:48:02;;;;;;;5.45;0.98;;;;;;;42.19;18.00;98389.91;6220986;23;20177;-90
2022/09/15 11:50:37;;;;;;;4.38;0.40;;;;;;;42.18;18.21;98388.25;6170022;23;20176;-89
2022/09/15 11:53:18;;;;;;;1.67;0.65;;;;;;;42.07;17.76;98384.00;6248084;23;20187;-89
2022/09/15 11:55:50;;;;;;;1.83;0.88;;;;;;;42.15;17.59;98388.84;6247768;23;20142;-88
2022/09/15 11:58:28;;;;;;;1.67;0.45;;;;;;;42.06;17.54;98380.44;6247398;23;20144;-88
2022/09/15 12:01:02;;;;;;;1.63;0.70;;;;;;;42.19;17.75;98374.16;6246751;23;20169;-89
2022/09/15 12:03:52;;;;;;;3.00;0.43;;;;;;;42.19;18.10;98384.41;6246506;23;20137;-90
2022/09/15 12:06:28;;;;;;;2.63;0.95;;;;;;;42.07;18.13;98364.72;6220479;23;20153;-88
2022/09/15 12:09:00;;;;;;;2.65;0.60;;;;;;;42.26;17.63;98357.25;6246373;23;20186;-89
2022/09/15 12:11:29;;;;;;;1.60;0.50;;;;;;;41.84;18.39;98361.03;6247867;23;20553;-88
2022/09/15 12:13:55;;;;;;;3.00;0.95;;;;;;;41.98;18.04;98345.38;6247187;23;20157;-88
2022/09/15 12:16:22;;;;;;;3.15;0.80;;;;;;;42.16;17.66;98338.16;6247234;23;20160;-89
2022/09/15 12:18:53;;;;;;;1.20;0.52;;;;;;;42.20;17.38;98336.41;6247183;23;20515;-88
2022/09/15 12:21:40;;;;;;;1.70;0.77;;;;;;;42.03;18.42;98344.44;6247143;23;20211;-88
2022/09/15 12:24:21;;;;;;;2.17;0.60;;;;;;;42.18;17.69;98341.44;6247564;23;20137;-88
2022/09/15 12:26:47;;;;;;;1.92;0.70;;;;;;;42.04;17.67;98343.31;6247579;23;20141;-88
2022/09/15 12:29:25;;;;;;;2.67;0.40;;;;;;;41.90;18.25;98345.22;6247782;23;20149;-89
2022/09/15 12:32:15;;;;;;;1.52;0.65;;;;;;;42.07;18.16;98338.00;6247110;23;20165;-89
2022/09/15 12:34:53;;;;;;;1.17;0.50;;;;;;;42.03;18.14;98337.00;6247401;23;20203;-89
2022/09/15 12:37:20;;;;;;;3.83;0.50;;;;;;;42.26;18.41;98329.69;6218718;23;20141;-89
2022/09/15 12:39:47;;;;;;;2.00;0.60;;;;;;;42.42;17.78;98322.75;6243626;23;20181;-88
2022/09/15 12:42:30;;;;;;;2.95;0.65;;;;;;;42.52;17.95;98316.22;6243168;23;20148;-88
2022/09/15 12:45:26;;;;;;;0.98;0.63;;;;;;;42.50;17.93;98324.81;6245166;23;20202;-88
2022/09/15 12:48:40;;;;;;;2.30;0.50;;;;;;;42.42;18.24;98311.75;6243307;23;20145;-89
2022/09/15 12:51:11;;;;;;;1.77;0.95;;;;;;;42.65;17.68;98309.91;6239409;23;20537;-88
2022/09/15 12:53:51;;;;;;;1.67;0.55;;;;;;;42.76;17.59;98314.91;6244743;23;20133;-88
2022/09/15 12:56:25;;;;;;;2.05;0.60;;;;;;;42.84;17.39;98314.16;6244811;23;20149;-88
2022/09/15 12:59:01;;;;;;;2.78;0.70;;;;;;;42.85;17.05;98307.50;6244222;23;20157;-88
2022/09/15 13:01:44;;;;;;;5.82;1.33;;;;;;;42.75;17.47;98310.50;6217604;23;20190;-89
2022/09/15 13:04:22;;;;;;;3.25;0.60;;;;;;;43.02;17.73;98303.31;6244234;23;20138;-88
2022/09/15 13:07:17;;;;;;;2.92;0.63;;;;;;;43.05;17.63;98308.22;6245180;23;20141;-90
2022/09/15 13:10:12;;;;;;;4.40;0.77;;;;;;;42.68;17.62;98307.34;6194450;23;20176;-88
2022/09/15 13:12:47;;;;;;;1.00;0.70;;;;;;;42.62;18.21;98311.34;6181598;23;20445;-88
2022/09/15 13:15:15;;;;;;;2.05;1.08;;;;;;;42.81;18.39;98309.28;6213838;23;20542;-88
2022/09/15 13:17:45;;;;;;;2.42;0.68;;;;;;;42.80;18.49;98313.13;6214297;23;20146;-89
2022/09/15 13:20:16;;;;;;;3.33;0.60;;;;;;;42.74;18.74;98306.09;6214683;23;20197;-90
2022/09/15 13:22:50;;;;;;;3.10;0.90;;;;;;;42.54;19.06;98298.28;6189699;23;20172;-89
2022/09/15 13:25:23;;;;;;;2.50;0.73;;;;;;;42.65;19.08;98293.38;6185491;23;20146;-90
2022/09/15 13:28:17;;;;;;;1.35;0.43;;;;;;;42.78;19.44;98293.34;6189064;23;20146;-90
2022/09/15 13:31:19;;;;;;;2.55;0.77;;;;;;;42.62;19.92;98289.28;6166464;23;20573;-89
2022/09/15 13:34:03;;;;;;;0.90;0.50;;;;;;;42.42;20.32;98295.22;6183337;23;20157;-90
2022/09/15 13:36:56;;;;;;;4.10;0.70;;;;;;;42.58;20.19;98288.28;6215173;23;20601;-91
2022/09/15 13:39:54;;;;;;;2.08;0.50;;;;;;;42.58;20.15;98292.97;6216054;23;20565;-90
2022/09/15 13:42:46;;;;;;;1.58;0.60;;;;;;;42.47;20.40;98289.59;6214562;23;20157;-91
2022/09/15 13:45:33;;;;;;;4.30;1.15;;;;;;;42.55;20.18;98288.91;6189282;23;20509;-89
2022/09/15 13:48:27;;;;;;;3.47;0.70;;;;;;;42.29;19.95;98284.19;6189524;23;20160;-90
2022/09/15 13:51:04;;;;;;;2.88;1.23;;;;;;;41.88;21.39;98278.66;6188848;23;20142;-88
2022/09/15 13:53:42;;;;;;;1.25;0.45;;;;;;;41.78;21.31;98279.63;6190182;23;20162;-89
2022/09/15 13:56:34;;;;;;;2.63;0.80;;;;;;;41.46;21.44;98282.41;6216399;23;20133;-91
2022/09/15 13:59:03;;;;;;;4.13;1.17;;;;;;;41.29;21.99;98280.16;6214430;23;20165;-90
2022/09/15 14:01:41;;;;;;;1.48;0.57;;;;;;;41.34;21.70;98273.78;6214656;23;20253;-89
2022/09/15 14:04:30;;;;;;;1.77;0.85;;;;;;;41.31;21.94;98286.22;6216450;23;20150;-89
2022/09/15 14:06:59;;;;;;;2.20;0.80;;;;;;;41.13;21.97;98280.69;6189929;23;20477;-89
2022/09/15 14:09:40;;;;;;;3.70;1.10;;;;;;;40.97;22.63;98277.38;6203562;23;20233;-89
2022/09/15 14:12:13;;;;;;;4.45;0.85;;;;;;;40.75;22.67;98288.13;6246901;23;20137;-89
2022/09/15 14:14:59;;;;;;;2.40;0.90;;;;;;;40.73;23.08;98282.91;6196089;23;20138;-89
2022/09/15 14:17:34;;;;;;;3.40;0.75;;;;;;;40.90;23.53;98275.00;6246858;23;20140;-88
2022/09/15 14:20:04;;;;;;;2.67;0.75;;;;;;;40.94;23.16;98269.72;6246454;23;20255;-89
2022/09/15 14:22:34;;;;;;;4.65;1.35;;;;;;;40.89;23.58;98270.63;6246744;23;20133;-90
2022/09/15 14:25:08;;;;;;;3.85;1.10;;;;;;;40.74;23.58;98262.56;6246020;23;20145;-89
2022/09/15 14:27:56;;;;;;;8.60;1.58;;;;;;;40.47;23.53;98257.72;6246069;23;20132;-90
2022/09/15 14:30:32;;;;;;;1.33;0.55;;;;;;;40.23;24.25;98265.13;6246405;23;20133;-90
2022/09/15 14:33:01;;;;;;;3.17;1.23;;;;;;;40.04;24.71;98257.94;6194850;23;20171;-89
2022/09/15 14:35:34;;;;;;;1.98;0.80;;;;;;;39.75;24.82;98264.28;6216075;23;20236;-91
2022/09/15 14:37:59;;;;;;;5.13;0.95;;;;;;;39.66;25.26;98265.19;6220024;23;20577;-90
2022/09/15 14:40:36;;;;;;;3.70;1.10;;;;;;;39.81;24.79;98256.78;6217942;23;20189;-90
2022/09/15 14:43:38;;;;;;;1.02;0.60;;;;;;;39.69;25.12;98270.09;6222014;23;20227;-91
2022/09/15 14:46:13;;;;;;;2.72;0.80;;;;;;;39.82;24.80;98255.69;6246048;23;20203;-92
2022/09/15 14:48:39;;;;;;;2.97;1.00;;;;;;;39.61;25.09;98256.97;6218823;23;20148;-89
2022/09/15 14:54:43;;;;;;;4.57;1.33;;;;;;;39.22;25.75;98265.28;6115740;23;20156;-91
2022/09/15 14:57:16;;;;;;;2.15;1.15;;;;;;;39.51;24.85;98257.09;6233930;23;20219;-90
2022/09/15 15:00:00;;;;;;;6.72;1.20;;;;;;;39.54;24.72;98251.03;6246309;23;20248;-90
2022/09/15 15:02:59;;;;;;;3.72;1.17;;;;;;;39.51;24.73;98248.84;6244665;22;20153;-90
2022/09/15 15:05:39;;;;;;;6.72;2.58;;;;;;;39.14;25.81;98241.19;6244133;23;20160;-89
2022/09/15 15:08:30;;;;;;;2.85;1.45;;;;;;;39.01;25.59;98239.94;6243727;22;20153;-91
2022/09/15 15:11:16;;;;;;;7.13;2.13;;;;;;;38.97;26.00;98230.63;6218877;23;20568;-90
2022/09/15 15:14:13;;;;;;;6.22;1.02;;;;;;;38.86;25.06;98242.78;6244431;23;20179;-89
2022/09/15 15:17:10;;;;;;;;;;;;;;;;;;;;;
2022/09/15 15:22:57;;;;;;;6.43;2.63;;;;;;;38.60;26.02;98249.50;6133448;23;20159;-90
2022/09/15 15:25:57;;;;;;;9.80;4.20;;;;;;;38.38;26.28;98246.31;6107948;23;20163;-90
2022/09/15 15:28:36;;;;;;;2.65;1.20;;;;;;;38.26;25.94;98252.09;6235276;23;20167;-90
2022/09/15 15:31:51;;;;;;;4.50;1.10;;;;;;;38.16;26.17;98254.06;6245144;22;20130;-90